Time;durP1;ratioP1;P1;durP2;ratioP2;P2;SDS_P1;SDS_P2;PMS_P1;PMS_P2;Temp;Humidity;BMP_temperature;BMP_pressure;BME280_temperature;BME280_humidity;BME280_pressure;Samples;Min_cycle;Max_cycle;Signal;HPM_P1;HPM_P2
2022/01/02 00:00:22;;;;;;;3.00;1.30;;;20.70;62.50;;;;;;4990880;28;20049;-63
2022/01/02 00:02:52;;;;;;;2.60;1.08;;;20.60;62.50;;;;;;4975788;28;20042;-63
2022/01/02 00:05:21;;;;;;;1.77;0.90;;;20.60;62.40;;;;;;4975788;28;20043;-63
2022/01/02 00:08:02;;;;;;;3.47;1.20;;;20.60;62.40;;;;;;4974443;28;20410;-63
2022/01/02 00:10:33;;;;;;;2.38;1.10;;;20.60;62.40;;;;;;4973967;28;20050;-63
2022/01/02 00:12:59;;;;;;;4.50;1.20;;;20.60;62.50;;;;;;4990304;28;20518;-64
2022/01/02 00:15:25;;;;;;;2.22;1.20;;;20.60;62.50;;;;;;4974174;28;20574;-63
2022/01/02 00:17:53;;;;;;;2.42;1.20;;;20.60;62.40;;;;;;4974455;28;20121;-63
2022/01/02 00:20:32;;;;;;;3.10;1.00;;;20.60;62.40;;;;;;4975980;28;20081;-63
2022/01/02 00:23:05;;;;;;;3.15;1.63;;;20.60;62.40;;;;;;4975497;28;20064;-63
2022/01/02 00:25:36;;;;;;;2.28;1.05;;;20.60;62.40;;;;;;4974546;28;20039;-63
2022/01/02 00:28:02;;;;;;;2.70;1.10;;;20.60;62.40;;;;;;4973968;28;20452;-63
2022/01/02 00:30:27;;;;;;;3.50;1.20;;;20.60;62.40;;;;;;4974853;28;20081;-64
2022/01/02 00:32:53;;;;;;;2.03;1.05;;;20.50;62.30;;;;;;4975454;28;20129;-63
2022/01/02 00:35:18;;;;;;;3.95;1.20;;;20.50;62.90;;;;;;4973317;28;20538;-64
2022/01/02 00:37:44;;;;;;;2.95;1.15;;;20.50;62.20;;;;;;4973984;28;20486;-63
2022/01/02 00:40:10;;;;;;;2.70;1.20;;;20.50;62.30;;;;;;4974376;28;20042;-63
2022/01/02 00:42:40;;;;;;;3.40;1.25;;;20.50;62.20;;;;;;4974891;28;20498;-63
2022/01/02 00:45:07;;;;;;;2.60;1.00;;;20.50;62.20;;;;;;4975435;28;20105;-63
2022/01/02 00:47:37;;;;;;;2.45;1.00;;;20.50;62.20;;;;;;4975673;28;20057;-63
2022/01/02 00:50:18;;;;;;;1.95;0.90;;;20.50;62.20;;;;;;4974343;28;20050;-63
2022/01/02 00:52:46;;;;;;;2.92;1.15;;;20.50;62.10;;;;;;4974823;28;20097;-63
2022/01/02 00:55:13;;;;;;;2.20;1.30;;;20.40;62.20;;;;;;4974005;28;20043;-63
2022/01/02 00:57:40;;;;;;;2.45;1.10;;;20.40;62.20;;;;;;4974907;28;20046;-64
2022/01/02 01:00:13;;;;;;;2.97;1.10;;;20.40;62.10;;;;;;4975219;28;20078;-63
2022/01/02 01:02:44;;;;;;;3.70;1.40;;;20.40;62.10;;;;;;4975288;28;20043;-63
2022/01/02 01:05:09;;;;;;;2.42;1.38;;;20.40;62.70;;;;;;4975027;28;20053;-64
2022/01/02 01:07:36;;;;;;;2.33;1.10;;;20.40;62.10;;;;;;4974672;28;20050;-63
2022/01/02 01:10:07;;;;;;;3.00;1.38;;;20.40;62.10;;;;;;4972808;28;20772;-64
2022/01/02 01:12:32;;;;;;;2.72;1.38;;;20.40;62.00;;;;;;4975049;28;20046;-64
2022/01/02 01:14:58;;;;;;;3.50;1.40;;;20.40;62.00;;;;;;4973714;28;20112;-64
2022/01/02 01:17:25;;;;;;;2.60;1.30;;;20.40;62.00;;;;;;4972970;28;20413;-64
2022/01/02 01:19:52;;;;;;;2.87;1.10;;;20.40;62.00;;;;;;4988986;28;20045;-63
2022/01/02 01:22:18;;;;;;;3.53;1.20;;;20.40;62.00;;;;;;4973290;28;20310;-63
2022/01/02 01:24:43;;;;;;;3.03;1.20;;;20.30;61.90;;;;;;4973967;28;20052;-64
2022/01/02 01:27:09;;;;;;;3.47;1.15;;;20.30;62.00;;;;;;4975006;28;20047;-64
2022/01/02 01:29:35;;;;;;;2.53;1.02;;;20.40;62.00;;;;;;4973436;28;20042;-63
2022/01/02 01:32:05;;;;;;;1.90;1.10;;;20.30;61.90;;;;;;4972653;28;20061;-63
2022/01/02 01:34:30;;;;;;;3.50;1.23;;;20.30;61.90;;;;;;4973920;28;20048;-63
2022/01/02 01:36:56;;;;;;;3.00;1.10;;;20.30;61.90;;;;;;4974258;28;20047;-63
2022/01/02 01:39:21;;;;;;;3.75;1.23;;;20.30;61.90;;;;;;4973926;28;20049;-63
2022/01/02 01:41:48;;;;;;;2.25;1.30;;;20.30;61.90;;;;;;4972992;28;20130;-63
2022/01/02 01:46:39;;;;;;;3.80;1.17;;;20.30;61.90;;;;;;4973858;28;20051;-63
2022/01/02 01:49:19;;;;;;;3.15;1.10;;;20.30;61.80;;;;;;4974211;28;20042;-63
2022/01/02 01:51:45;;;;;;;2.58;1.20;;;20.30;61.80;;;;;;4974094;28;20061;-63
2022/01/02 01:54:10;;;;;;;3.97;1.20;;;20.30;61.80;;;;;;4973433;28;20039;-63
2022/01/02 01:56:37;;;;;;;2.35;0.90;;;20.30;61.80;;;;;;4974230;28;20050;-63
2022/01/02 01:59:02;;;;;;;2.38;1.05;;;20.30;61.80;;;;;;4971914;28;20046;-63
2022/01/02 02:01:28;;;;;;;4.03;1.38;;;20.20;61.80;;;;;;4989092;28;20039;-63
2022/01/02 02:03:53;;;;;;;1.60;0.98;;;20.30;61.80;;;;;;4988856;28;20043;-62
2022/01/02 02:06:19;;;;;;;3.30;1.40;;;20.30;61.80;;;;;;4988350;28;20109;-63
2022/01/02 02:08:46;;;;;;;3.22;1.20;;;20.20;61.70;;;;;;4973961;28;20402;-63
2022/01/02 02:11:12;;;;;;;2.80;1.27;;;20.20;61.70;;;;;;4974322;28;20533;-63
2022/01/02 02:13:38;;;;;;;2.47;1.10;;;20.20;61.70;;;;;;4972117;28;20046;-63
2022/01/02 02:16:03;;;;;;;3.72;1.17;;;20.20;61.60;;;;;;4988513;28;20047;-63
2022/01/02 02:18:29;;;;;;;2.28;1.20;;;20.20;61.60;;;;;;4988958;28;20047;-63
2022/01/02 02:20:54;;;;;;;2.17;1.02;;;20.20;61.60;;;;;;4971946;28;20054;-63
2022/01/02 02:23:20;;;;;;;2.10;1.20;;;20.20;62.20;;;;;;4972618;28;20046;-63
2022/01/02 02:25:45;;;;;;;3.08;1.23;;;20.20;61.60;;;;;;4973662;28;20390;-63
2022/01/02 02:28:13;;;;;;;2.65;1.17;;;20.20;61.60;;;;;;4972035;28;20047;-63
2022/01/02 02:30:43;;;;;;;3.60;1.50;;;20.20;61.60;;;;;;4972321;28;20058;-63
2022/01/02 02:33:09;;;;;;;4.13;1.13;;;20.20;61.60;;;;;;4973362;28;20039;-63
2022/01/02 02:35:35;;;;;;;2.05;1.10;;;20.20;61.60;;;;;;4971780;28;20471;-63
2022/01/02 02:38:01;;;;;;;1.92;1.05;;;20.20;61.60;;;;;;4988165;28;20046;-63
2022/01/02 02:40:28;;;;;;;1.98;1.17;;;20.20;61.60;;;;;;4988918;28;20051;-63
2022/01/02 02:43:02;;;;;;;3.25;1.40;;;20.20;61.60;;;;;;4971296;28;20446;-63
2022/01/02 02:51:02;;;;;;;1.75;1.00;;;20.20;61.50;;;;;;4973312;28;20050;-63
2022/01/02 02:53:28;;;;;;;2.63;1.00;;;20.20;61.50;;;;;;4988417;28;20101;-63
2022/01/02 02:55:57;;;;;;;1.85;1.00;;;20.20;61.50;;;;;;4987453;28;20043;-63
2022/01/02 03:00:59;;;;;;;2.72;1.00;;;20.20;61.40;;;;;;4978831;28;20051;-62
2022/01/02 03:03:25;;;;;;;3.00;1.20;;;20.20;61.30;;;;;;4990690;28;20046;-63
2022/01/02 03:05:51;;;;;;;2.33;1.20;;;20.20;61.30;;;;;;4991132;28;20096;-63
2022/01/02 03:08:16;;;;;;;3.17;1.10;;;20.20;61.30;;;;;;4991478;28;20065;-63
2022/01/02 03:10:42;;;;;;;2.38;1.02;;;20.20;61.20;;;;;;4991493;28;20214;-63
2022/01/02 03:13:07;;;;;;;3.40;1.30;;;20.20;61.80;;;;;;4993278;28;20039;-63
2022/01/02 03:15:33;;;;;;;2.63;1.02;;;20.20;61.80;;;;;;4992707;28;20074;-63
2022/01/02 03:17:58;;;;;;;2.75;1.00;;;20.30;61.20;;;;;;5006893;28;20125;-63
2022/01/02 03:20:24;;;;;;;2.92;1.50;;;20.30;61.10;;;;;;4992701;28;20092;-63
2022/01/02 03:22:49;;;;;;;2.08;1.05;;;20.30;61.10;;;;;;4991105;28;20521;-63
2022/01/02 03:25:16;;;;;;;2.70;1.20;;;20.30;61.20;;;;;;4992374;28;20046;-63
2022/01/02 03:27:42;;;;;;;2.55;1.45;;;20.30;61.10;;;;;;4992747;28;20043;-64
2022/01/02 03:30:08;;;;;;;2.03;1.00;;;20.30;61.20;;;;;;4992901;28;20045;-64
2022/01/02 03:32:34;;;;;;;3.30;1.10;;;20.30;61.10;;;;;;4990842;28;20478;-64
2022/01/02 03:34:59;;;;;;;3.70;1.20;;;20.30;61.10;;;;;;4992523;28;20049;-64
2022/01/02 03:37:29;;;;;;;2.50;1.10;;;20.30;61.10;;;;;;4992276;28;20049;-64
2022/01/02 03:39:57;;;;;;;3.17;1.00;;;20.30;61.10;;;;;;4992504;28;20060;-64
2022/01/02 03:42:23;;;;;;;2.78;1.10;;;20.30;61.70;;;;;;4992640;28;20046;-64
2022/01/02 03:44:48;;;;;;;2.38;1.30;;;20.30;61.10;;;;;;4992404;28;20042;-64
2022/01/02 03:47:14;;;;;;;2.38;1.10;;;20.40;61.10;;;;;;5011096;28;20046;-63
2022/01/02 03:49:39;;;;;;;3.28;1.27;;;20.30;61.10;;;;;;4996144;28;20093;-64
2022/01/02 03:52:05;;;;;;;2.33;1.20;;;20.40;61.00;;;;;;4993617;28;20050;-63
2022/01/02 03:54:30;;;;;;;3.20;1.20;;;20.40;61.00;;;;;;4996061;28;20038;-64
2022/01/02 03:56:56;;;;;;;1.70;0.98;;;20.40;61.00;;;;;;5010538;28;20046;-64
2022/01/02 03:59:21;;;;;;;3.80;1.10;;;20.40;61.00;;;;;;4994026;28;20046;-63
2022/01/02 04:01:47;;;;;;;4.35;1.67;;;20.40;61.00;;;;;;4995596;28;20050;-64
2022/01/02 04:04:12;;;;;;;2.28;1.23;;;20.40;61.00;;;;;;4994479;28;20050;-63
2022/01/02 04:06:38;;;;;;;3.00;0.95;;;20.40;61.00;;;;;;4994651;28;20062;-64
2022/01/02 04:09:03;;;;;;;2.10;1.10;;;20.40;60.90;;;;;;4995389;28;20133;-64
2022/01/02 04:11:29;;;;;;;3.95;1.23;;;20.40;60.90;;;;;;4995832;28;20133;-64
2022/01/02 04:13:54;;;;;;;3.53;1.20;;;20.40;60.90;;;;;;4994612;28;20486;-64
2022/01/02 04:16:20;;;;;;;1.73;1.00;;;20.40;60.90;;;;;;4994102;28;20057;-63
2022/01/02 04:18:45;;;;;;;3.33;0.93;;;20.40;60.90;;;;;;4993937;28;20049;-64
2022/01/02 04:21:11;;;;;;;2.85;1.00;;;20.40;60.90;;;;;;4994638;28;20046;-64
2022/01/02 04:23:38;;;;;;;2.67;1.10;;;20.40;60.90;;;;;;4995391;28;20050;-64
2022/01/02 04:26:04;;;;;;;2.00;1.10;;;20.40;60.80;;;;;;4995446;28;20046;-64
2022/01/02 04:28:30;;;;;;;2.67;1.10;;;20.40;60.80;;;;;;5010085;28;20054;-64
2022/01/02 04:30:55;;;;;;;2.80;1.10;;;20.40;60.80;;;;;;4993642;28;20398;-64
2022/01/02 04:33:20;;;;;;;2.67;1.05;;;20.40;60.80;;;;;;4994006;28;20050;-64
2022/01/02 04:35:46;;;;;;;2.25;1.00;;;20.40;60.80;;;;;;4994309;28;20500;-64
2022/01/02 04:38:13;;;;;;;2.58;1.15;;;20.40;60.80;;;;;;4992906;28;20046;-64
2022/01/02 04:40:39;;;;;;;2.15;1.00;;;20.40;60.80;;;;;;4994453;28;20054;-64
2022/01/02 04:43:05;;;;;;;1.88;1.20;;;20.40;60.80;;;;;;4994011;28;20045;-64
2022/01/02 04:45:30;;;;;;;3.10;1.40;;;20.40;60.80;;;;;;4992821;28;20078;-63
2022/01/02 04:47:56;;;;;;;1.77;1.02;;;20.40;60.80;;;;;;5009242;28;20042;-63
2022/01/02 04:50:21;;;;;;;3.35;1.17;;;20.40;61.30;;;;;;4992949;28;20054;-63
2022/01/02 04:52:47;;;;;;;3.13;1.27;;;20.40;60.70;;;;;;4994497;28;20049;-64
2022/01/02 04:55:12;;;;;;;2.03;1.00;;;20.40;60.70;;;;;;4993360;28;20522;-64
2022/01/02 04:57:38;;;;;;;3.75;1.45;;;20.40;60.70;;;;;;4993544;28;20046;-63
2022/01/02 05:00:05;;;;;;;2.38;1.00;;;20.40;60.70;;;;;;4992931;28;20051;-63
2022/01/02 05:02:30;;;;;;;2.40;1.10;;;20.40;60.70;;;;;;4992976;28;20134;-63
2022/01/02 05:04:56;;;;;;;3.00;1.05;;;20.40;60.70;;;;;;4993484;28;20129;-63
2022/01/02 05:07:21;;;;;;;2.95;1.35;;;20.40;60.70;;;;;;4993470;28;20055;-64
2022/01/02 05:09:47;;;;;;;2.53;1.33;;;20.40;60.70;;;;;;4993456;28;20046;-63
2022/01/02 05:12:13;;;;;;;3.10;1.23;;;20.40;60.60;;;;;;5009621;28;20081;-63
2022/01/02 05:14:38;;;;;;;3.03;1.48;;;20.40;60.60;;;;;;4994567;28;20046;-64
2022/01/02 05:17:04;;;;;;;2.78;1.10;;;20.30;60.50;;;;;;5008397;28;20050;-64
2022/01/02 05:19:29;;;;;;;3.90;1.30;;;20.40;60.60;;;;;;4994462;28;20549;-63
2022/01/02 05:21:55;;;;;;;2.70;1.00;;;20.40;60.60;;;;;;4992840;28;20046;-63
2022/01/02 05:24:20;;;;;;;4.05;1.48;;;20.40;60.60;;;;;;4992097;28;20046;-64
2022/01/02 05:26:45;;;;;;;3.03;1.20;;;20.30;60.50;;;;;;4993916;28;20065;-64
2022/01/02 05:29:11;;;;;;;3.17;1.10;;;20.40;60.60;;;;;;4994372;28;20061;-63
2022/01/02 05:31:37;;;;;;;3.00;1.17;;;20.40;60.60;;;;;;4993483;28;20077;-63
2022/01/02 05:34:02;;;;;;;2.40;1.30;;;20.40;60.60;;;;;;4992695;28;20045;-63
2022/01/02 05:36:28;;;;;;;3.58;1.25;;;20.40;60.60;;;;;;4993975;28;20486;-63
2022/01/02 05:38:53;;;;;;;3.00;1.20;;;20.40;60.60;;;;;;4991603;28;20097;-63
2022/01/02 05:41:19;;;;;;;3.58;1.10;;;20.30;60.50;;;;;;5008971;28;20077;-64
2022/01/02 05:43:44;;;;;;;2.67;1.45;;;20.40;60.60;;;;;;4992489;28;20068;-64
2022/01/02 05:46:10;;;;;;;2.85;1.42;;;20.30;60.50;;;;;;4993439;28;20509;-64
2022/01/02 05:48:36;;;;;;;1.75;1.10;;;20.40;60.60;;;;;;5008705;28;20046;-64
2022/01/02 05:51:02;;;;;;;2.70;1.05;;;20.40;60.60;;;;;;4993498;28;20074;-63
2022/01/02 05:53:28;;;;;;;3.45;1.10;;;20.40;60.50;;;;;;4993394;28;20043;-63
2022/01/02 05:55:54;;;;;;;1.63;1.10;;;20.40;60.50;;;;;;4993275;28;20046;-63
2022/01/02 05:58:19;;;;;;;3.10;1.02;;;20.40;60.60;;;;;;4991193;28;20397;-63
2022/01/02 06:00:45;;;;;;;2.97;1.00;;;20.40;60.60;;;;;;4991161;28;20054;-63
2022/01/02 06:03:10;;;;;;;4.65;1.17;;;20.40;60.50;;;;;;4992442;28;20550;-63
2022/01/02 06:05:36;;;;;;;2.28;1.10;;;20.40;60.50;;;;;;4993059;28;20053;-64
2022/01/02 06:08:02;;;;;;;2.67;1.20;;;20.40;60.50;;;;;;4990970;28;20050;-64
2022/01/02 06:10:27;;;;;;;2.17;1.17;;;20.40;60.50;;;;;;4992471;28;20170;-64
2022/01/02 06:12:53;;;;;;;2.75;1.10;;;20.40;60.50;;;;;;5007806;28;20129;-64
2022/01/02 06:15:19;;;;;;;4.07;1.25;;;20.40;60.50;;;;;;5008563;28;20050;-64
2022/01/02 06:17:44;;;;;;;2.30;1.10;;;20.50;60.50;;;;;;4991720;28;20490;-63
2022/01/02 06:20:09;;;;;;;2.63;1.15;;;20.40;60.50;;;;;;4990410;28;20080;-63
2022/01/02 06:22:35;;;;;;;4.35;1.50;;;20.50;60.50;;;;;;4991870;28;20058;-64
2022/01/02 06:25:01;;;;;;;2.30;0.98;;;20.50;60.50;;;;;;4992721;28;20054;-64
2022/01/02 06:27:26;;;;;;;3.15;1.20;;;20.50;60.50;;;;;;4992552;28;20046;-64
2022/01/02 06:29:52;;;;;;;2.40;1.13;;;20.50;60.50;;;;;;4991823;28;20042;-64
2022/01/02 06:32:17;;;;;;;3.60;1.00;;;20.50;60.50;;;;;;5008609;28;20050;-64
2022/01/02 06:34:46;;;;;;;1.98;1.13;;;20.50;60.50;;;;;;4991234;28;20140;-64
2022/01/02 06:37:11;;;;;;;3.30;1.10;;;20.50;60.50;;;;;;4993297;28;20038;-64
2022/01/02 06:39:37;;;;;;;3.00;1.08;;;20.50;60.50;;;;;;4991735;28;20050;-64
2022/01/02 06:42:03;;;;;;;4.18;1.13;;;20.50;60.40;;;;;;4992162;28;20084;-64
2022/01/02 06:44:28;;;;;;;4.00;1.35;;;20.50;60.50;;;;;;4991855;28;20092;-64
2022/01/02 06:46:54;;;;;;;2.83;1.10;;;20.50;60.40;;;;;;4990626;28;20042;-64
2022/01/02 06:49:19;;;;;;;3.38;1.33;;;20.60;60.50;;;;;;4991874;28;20505;-64
2022/01/02 06:51:45;;;;;;;2.08;1.05;;;20.50;60.40;;;;;;4990816;28;20058;-64
2022/01/02 06:54:10;;;;;;;2.30;1.08;;;20.60;60.50;;;;;;4991355;28;20133;-64
2022/01/02 06:56:36;;;;;;;3.97;1.08;;;20.60;60.50;;;;;;5006613;28;20414;-64
2022/01/02 06:59:01;;;;;;;3.97;0.98;;;20.60;60.40;;;;;;4991787;28;20054;-63
2022/01/02 07:01:27;;;;;;;3.05;1.10;;;20.60;60.40;;;;;;4992245;28;20445;-64
2022/01/02 07:03:52;;;;;;;5.47;1.20;;;20.60;60.40;;;;;;4991689;28;20102;-64
2022/01/02 07:06:18;;;;;;;3.88;1.00;;;20.60;60.30;;;;;;4992985;28;20560;-64
2022/01/02 07:08:43;;;;;;;3.60;1.00;;;20.60;60.40;;;;;;4990509;28;20054;-64
2022/01/02 07:11:10;;;;;;;3.38;0.80;;;20.70;60.40;;;;;;4992724;28;20042;-64
2022/01/02 07:13:36;;;;;;;1.70;0.98;;;20.70;60.40;;;;;;4991604;28;20034;-62
2022/01/02 07:16:01;;;;;;;3.22;1.00;;;20.60;60.30;;;;;;4991476;28;20137;-64
2022/01/02 07:18:27;;;;;;;2.72;1.00;;;20.70;60.30;;;;;;4993188;28;20120;-64
2022/01/02 07:20:52;;;;;;;4.32;1.13;;;20.70;60.30;;;;;;4995303;28;20046;-64
2022/01/02 07:23:18;;;;;;;3.55;1.10;;;20.70;60.40;;;;;;4994648;28;20397;-63
2022/01/02 07:25:43;;;;;;;4.80;1.38;;;20.70;60.30;;;;;;4995092;28;20065;-64
2022/01/02 07:28:08;;;;;;;3.47;1.10;;;20.70;60.30;;;;;;4995535;28;20050;-64
2022/01/02 07:30:34;;;;;;;5.80;1.13;;;20.80;60.40;;;;;;5010402;28;20100;-64
2022/01/02 07:33:02;;;;;;;4.82;1.00;;;20.80;60.40;;;;;;4996169;28;20049;-64
2022/01/02 07:35:30;;;;;;;3.00;1.00;;;20.70;60.30;;;;;;5011493;28;20429;-64
2022/01/02 07:37:57;;;;;;;4.88;1.20;;;20.80;60.40;;;;;;4994007;28;20540;-63
2022/01/02 07:40:23;;;;;;;5.20;1.20;;;20.80;60.40;;;;;;4996460;28;20074;-64
2022/01/02 07:42:49;;;;;;;4.30;0.88;;;20.80;60.40;;;;;;4994618;28;20118;-65
2022/01/02 07:45:14;;;;;;;6.70;1.50;;;20.80;60.40;;;;;;4995512;28;20125;-64
2022/01/02 07:47:40;;;;;;;4.55;1.33;;;20.80;60.50;;;;;;4995047;28;20410;-64
2022/01/02 07:50:06;;;;;;;4.35;1.23;;;20.90;60.70;;;;;;4995129;28;20129;-64
2022/01/02 07:52:32;;;;;;;4.78;1.45;;;20.80;60.70;;;;;;4995160;28;20487;-64
2022/01/02 07:54:57;;;;;;;3.72;1.02;;;20.90;60.80;;;;;;5010814;28;20069;-64
2022/01/02 07:57:23;;;;;;;2.50;1.17;;;20.90;60.90;;;;;;4995791;28;20046;-64
2022/01/02 07:59:48;;;;;;;2.55;1.40;;;20.90;60.90;;;;;;4994710;28;20063;-63
2022/01/02 08:02:14;;;;;;;5.30;1.20;;;20.90;60.90;;;;;;4994899;28;20046;-64
2022/01/02 08:04:40;;;;;;;2.80;0.95;;;20.90;60.90;;;;;;4995673;28;20536;-64
2022/01/02 08:07:05;;;;;;;5.93;1.30;;;21.00;61.00;;;;;;4995131;28;20050;-64
2022/01/02 08:09:31;;;;;;;2.13;1.08;;;21.00;61.00;;;;;;5010839;28;20434;-65
2022/01/02 08:11:56;;;;;;;3.13;1.05;;;21.00;61.00;;;;;;4994564;28;20038;-65
2022/01/02 08:14:22;;;;;;;4.85;1.20;;;21.00;61.00;;;;;;4994531;28;20129;-64
2022/01/02 08:16:48;;;;;;;4.10;1.20;;;21.00;61.10;;;;;;4995431;28;20046;-65
2022/01/02 08:19:13;;;;;;;3.22;1.13;;;21.00;61.00;;;;;;4993399;28;20045;-63
2022/01/02 08:21:42;;;;;;;4.35;1.10;;;21.00;61.00;;;;;;4993537;28;20046;-62
2022/01/02 08:24:07;;;;;;;2.38;1.05;;;21.00;61.00;;;;;;4995357;28;20042;-62
2022/01/02 08:26:33;;;;;;;4.30;1.20;;;21.00;61.00;;;;;;5001667;28;20434;-63
2022/01/02 08:29:01;;;;;;;3.85;1.40;;;21.00;60.90;;;;;;5004355;28;20045;-63
2022/01/02 08:31:27;;;;;;;;;;;21.00;60.90;;;;;;5005221;28;20117;-63
2022/01/02 08:33:53;;;;;;;9.10;1.30;;;21.00;60.90;;;;;;5010027;28;20008;-67
2022/01/02 08:36:19;;;;;;;5.10;1.30;;;21.00;61.00;;;;;;5030088;28;20041;-65
2022/01/02 08:38:47;;;;;;;5.30;1.25;;;21.00;61.00;;;;;;5013342;28;20063;-65
2022/01/02 08:41:15;;;;;;;2.72;1.10;;;21.00;61.10;;;;;;5029014;28;20077;-67
2022/01/02 08:43:41;;;;;;;5.00;1.20;;;21.10;61.30;;;;;;5014518;28;20038;-68
2022/01/02 08:46:07;;;;;;;4.30;1.33;;;21.10;61.40;;;;;;5014710;28;20046;-68
2022/01/02 08:48:32;;;;;;;6.03;1.20;;;21.10;61.40;;;;;;5029318;28;20096;-67
2022/01/02 08:50:58;;;;;;;4.97;1.30;;;21.10;61.50;;;;;;5013911;28;20482;-66
2022/01/02 08:53:24;;;;;;;4.35;1.38;;;21.10;61.40;;;;;;5012924;28;20049;-67
2022/01/02 08:55:49;;;;;;;4.53;1.08;;;21.10;61.40;;;;;;5028507;28;20046;-66
2022/01/02 08:58:15;;;;;;;4.55;1.60;;;21.20;61.50;;;;;;5013120;28;20066;-67
2022/01/02 09:00:40;;;;;;;5.10;1.30;;;21.20;61.50;;;;;;5014360;28;20073;-66
2022/01/02 09:03:06;;;;;;;3.35;1.42;;;21.20;61.50;;;;;;5028876;28;20401;-67
2022/01/02 09:05:33;;;;;;;2.92;1.20;;;21.10;61.50;;;;;;5013251;28;20042;-68
2022/01/02 09:07:58;;;;;;;4.85;1.38;;;21.20;61.60;;;;;;5013429;28;20395;-67
2022/01/02 09:10:24;;;;;;;5.85;1.50;;;21.20;61.60;;;;;;5028569;28;20104;-67
2022/01/02 09:12:49;;;;;;;2.85;1.20;;;21.20;61.50;;;;;;5013891;28;20049;-67
2022/01/02 09:15:15;;;;;;;3.33;1.20;;;21.20;61.60;;;;;;5013556;28;20048;-68
2022/01/02 09:17:40;;;;;;;7.80;1.98;;;21.20;61.60;;;;;;5028802;28;20425;-67
2022/01/02 09:20:07;;;;;;;3.72;1.00;;;21.30;61.60;;;;;;5013906;28;20092;-67
2022/01/02 09:22:32;;;;;;;5.93;1.40;;;21.30;61.60;;;;;;5011938;28;20049;-66
2022/01/02 09:24:58;;;;;;;4.82;1.20;;;21.30;61.60;;;;;;5013638;28;20034;-66
2022/01/02 09:27:24;;;;;;;3.65;1.33;;;21.20;61.60;;;;;;5013592;28;20053;-66
2022/01/02 09:29:49;;;;;;;5.50;1.55;;;21.20;61.40;;;;;;5011485;28;20042;-67
2022/01/02 09:32:15;;;;;;;3.67;1.10;;;21.30;61.60;;;;;;5012757;28;20045;-66
2022/01/02 09:34:40;;;;;;;2.75;1.50;;;21.30;61.60;;;;;;5011944;28;20107;-65
2022/01/02 09:37:06;;;;;;;5.25;1.20;;;21.30;61.60;;;;;;5011123;28;20041;-64
2022/01/02 09:39:31;;;;;;;5.75;1.20;;;21.30;61.60;;;;;;5012950;28;20038;-64
2022/01/02 09:41:57;;;;;;;5.68;1.30;;;21.30;61.40;;;;;;5012353;28;20425;-64
2022/01/02 09:44:22;;;;;;;3.47;1.50;;;21.30;61.30;;;;;;5012648;28;20559;-64
2022/01/02 09:46:52;;;;;;;3.88;1.00;;;21.30;61.30;;;;;;5013354;28;20042;-64
2022/01/02 09:49:19;;;;;;;5.03;1.40;;;21.30;61.30;;;;;;5012267;28;20054;-65
2022/01/02 09:51:44;;;;;;;4.00;1.30;;;21.30;61.20;;;;;;5012492;28;20041;-65
2022/01/02 09:54:10;;;;;;;6.72;1.67;;;21.30;61.20;;;;;;5011878;28;20042;-65
2022/01/02 09:56:36;;;;;;;3.88;1.35;;;21.30;61.20;;;;;;5011831;28;20107;-64
2022/01/02 09:59:02;;;;;;;6.30;1.35;;;21.30;61.10;;;;;;5012256;28;20124;-64
2022/01/02 10:01:29;;;;;;;3.95;1.38;;;21.30;61.10;;;;;;4998848;28;20045;-64
2022/01/02 10:03:55;;;;;;;3.65;1.50;;;21.30;61.10;;;;;;4993145;28;20093;-65
2022/01/02 10:06:22;;;;;;;3.72;1.40;;;21.30;61.00;;;;;;4990891;28;20478;-64
2022/01/02 10:08:47;;;;;;;6.93;1.63;;;21.30;61.00;;;;;;4991295;28;20515;-64
2022/01/02 10:13:53;;;;;;;4.10;1.50;;;21.30;60.90;;;;;;4991061;28;20050;-64
2022/01/02 10:16:32;;;;;;;8.88;1.38;;;21.30;60.70;;;;;;4997703;28;20041;-63
2022/01/02 10:18:58;;;;;;;5.05;1.67;;;21.30;60.60;;;;;;5010994;28;20050;-63
2022/01/02 10:21:27;;;;;;;6.68;1.52;;;21.30;60.50;;;;;;5013110;28;20133;-63
2022/01/02 10:24:11;;;;;;;4.85;1.13;;;21.30;60.40;;;;;;5027016;28;20099;-63
2022/01/02 10:26:37;;;;;;;5.82;1.30;;;21.30;60.20;;;;;;5012441;28;20125;-63
2022/01/02 10:29:10;;;;;;;7.07;1.80;;;21.30;60.30;;;;;;5012743;28;20529;-63
2022/01/02 10:31:35;;;;;;;5.10;1.52;;;21.30;60.10;;;;;;5013121;28;20046;-63
2022/01/02 10:34:01;;;;;;;2.97;1.40;;;21.30;60.10;;;;;;5011222;28;20050;-64
2022/01/02 10:36:33;;;;;;;4.35;1.80;;;21.30;60.00;;;;;;5001997;28;20042;-63
2022/01/02 10:39:07;;;;;;;6.82;1.98;;;21.30;60.00;;;;;;5003002;28;20537;-64
2022/01/02 10:41:39;;;;;;;5.57;1.70;;;21.30;60.00;;;;;;5000482;28;20109;-63
2022/01/02 10:44:29;;;;;;;4.50;1.60;;;21.20;59.90;;;;;;5001519;28;20053;-64
2022/01/02 10:47:11;;;;;;;8.40;2.08;;;21.20;59.80;;;;;;5015765;28;20141;-62
2022/01/02 10:49:56;;;;;;;8.52;2.17;;;21.30;59.80;;;;;;5002046;28;20054;-63
2022/01/02 10:52:37;;;;;;;9.20;2.45;;;21.20;60.10;;;;;;4991835;28;20109;-65
2022/01/02 10:55:05;;;;;;;5.32;2.13;;;21.30;60.30;;;;;;5009072;28;20446;-64
2022/01/02 10:57:32;;;;;;;6.25;2.05;;;21.30;60.40;;;;;;4996465;28;20046;-65
2022/01/02 10:59:58;;;;;;;5.03;1.80;;;21.30;61.00;;;;;;4994934;28;20038;-66
2022/01/02 11:02:24;;;;;;;7.53;2.00;;;21.30;60.40;;;;;;4995216;28;20050;-65
2022/01/02 11:05:10;;;;;;;5.50;1.92;;;21.30;60.40;;;;;;4995618;28;20047;-66
2022/01/02 11:07:46;;;;;;;7.25;2.03;;;21.40;60.50;;;;;;4997317;28;20076;-65
2022/01/02 11:10:14;;;;;;;8.70;1.90;;;21.30;60.30;;;;;;4994298;28;20045;-67
2022/01/02 11:12:40;;;;;;;7.05;2.25;;;21.40;60.30;;;;;;4994811;28;20042;-67
2022/01/02 11:15:07;;;;;;;7.28;2.03;;;21.40;60.40;;;;;;4991000;28;20544;-65
2022/01/02 11:17:33;;;;;;;7.28;2.05;;;21.40;60.40;;;;;;4998475;28;20042;-66
2022/01/02 11:19:59;;;;;;;6.93;2.15;;;21.40;60.50;;;;;;4993739;28;20062;-66
2022/01/02 11:22:47;;;;;;;5.53;2.00;;;21.40;60.50;;;;;;4996616;28;20433;-66
2022/01/02 11:25:38;;;;;;;4.07;2.15;;;21.40;60.50;;;;;;4994384;28;20042;-68
2022/01/02 11:28:06;;;;;;;6.95;2.42;;;21.40;60.40;;;;;;4993882;28;20045;-66
2022/01/02 11:30:32;;;;;;;4.82;1.85;;;21.40;60.40;;;;;;5012509;28;20496;-65
2022/01/02 11:33:08;;;;;;;4.03;1.67;;;21.50;60.50;;;;;;4999506;28;20053;-64
2022/01/02 11:35:35;;;;;;;10.43;2.25;;;21.50;60.50;;;;;;4995105;28;20041;-64
2022/01/02 11:38:01;;;;;;;6.80;2.22;;;21.50;60.50;;;;;;4998564;28;20085;-65
2022/01/02 11:40:48;;;;;;;5.15;2.00;;;21.50;60.50;;;;;;5013241;28;20050;-64
2022/01/02 11:43:35;;;;;;;4.18;1.58;;;21.50;60.50;;;;;;4994024;28;20076;-64
2022/01/02 11:46:14;;;;;;;5.82;2.13;;;21.50;60.60;;;;;;4994517;28;20391;-65
2022/01/02 11:48:39;;;;;;;7.72;2.13;;;21.50;61.30;;;;;;4994023;28;20100;-64
2022/01/02 11:51:05;;;;;;;5.93;2.10;;;21.40;60.60;;;;;;4993261;28;20042;-64
2022/01/02 11:53:34;;;;;;;5.95;1.85;;;21.40;60.60;;;;;;4994385;28;20134;-64
2022/01/02 11:56:00;;;;;;;4.63;1.98;;;21.40;60.60;;;;;;4995617;28;20768;-64
2022/01/02 11:58:38;;;;;;;6.65;1.60;;;21.50;60.70;;;;;;5010050;28;20049;-64
2022/01/02 12:01:03;;;;;;;5.80;2.22;;;21.40;60.60;;;;;;4993773;28;20141;-62
2022/01/02 12:03:38;;;;;;;5.90;2.50;;;21.40;60.70;;;;;;4995722;28;20042;-62
2022/01/02 12:06:15;;;;;;;4.40;2.20;;;21.40;60.50;;;;;;4992811;28;20050;-63
2022/01/02 12:08:40;;;;;;;5.25;1.80;;;21.40;60.30;;;;;;4995235;28;20052;-63
2022/01/02 12:11:31;;;;;;;4.25;1.98;;;21.40;60.30;;;;;;4994937;28;20046;-63
2022/01/02 12:14:09;;;;;;;7.95;2.72;;;21.40;60.10;;;;;;5000246;28;20097;-62
2022/01/02 12:16:39;;;;;;;5.43;2.20;;;21.40;60.10;;;;;;5001030;28;20046;-63
2022/01/02 12:19:05;;;;;;;4.57;2.10;;;21.30;59.90;;;;;;5017957;28;20046;-63
2022/01/02 12:21:32;;;;;;;7.43;2.40;;;21.30;59.40;;;;;;5004663;28;20049;-62
2022/01/02 12:23:58;;;;;;;5.50;2.42;;;21.30;59.10;;;;;;4999988;28;20386;-63
2022/01/02 12:26:34;;;;;;;6.60;2.25;;;21.30;59.00;;;;;;4999133;28;20051;-72
2022/01/02 12:29:05;;;;;;;6.65;2.15;;;21.20;58.80;;;;;;5002137;28;20046;-62
2022/01/02 12:31:41;;;;;;;6.57;1.95;;;21.20;59.00;;;;;;5003791;28;20034;-62
2022/01/02 12:34:17;;;;;;;5.70;2.30;;;21.20;59.10;;;;;;5003181;28;20122;-62
2022/01/02 12:36:44;;;;;;;7.50;2.60;;;21.20;59.00;;;;;;5001527;28;20042;-62
2022/01/02 12:39:31;;;;;;;7.53;2.28;;;21.20;59.10;;;;;;5001568;28;20046;-62
2022/01/02 12:42:02;;;;;;;4.97;2.00;;;21.20;59.20;;;;;;4999950;28;20050;-62
2022/01/02 12:44:29;;;;;;;6.07;1.92;;;21.20;59.20;;;;;;5018747;28;20052;-61
2022/01/02 12:46:56;;;;;;;7.53;2.20;;;21.20;59.20;;;;;;5000037;28;20085;-62
2022/01/02 12:49:26;;;;;;;6.38;2.40;;;21.10;59.10;;;;;;5004496;28;20046;-61
2022/01/02 12:51:59;;;;;;;5.65;2.47;;;21.10;59.80;;;;;;5004833;28;20478;-62
2022/01/02 12:54:29;;;;;;;7.45;2.38;;;21.10;59.10;;;;;;5003911;28;20050;-62
2022/01/02 12:56:57;;;;;;;5.88;2.22;;;21.10;59.20;;;;;;5001472;28;20494;-62
2022/01/02 12:59:57;;;;;;;6.38;2.53;;;21.10;59.20;;;;;;5003398;28;20125;-61
2022/01/02 13:02:24;;;;;;;5.30;2.53;;;21.10;59.10;;;;;;4995718;28;20050;-63